HYA weather

Barnstable Municipal Boardman Polando Field
Hyannis, Massachusetts, United States

Public forecast

Using degrees Fahrenheit for public forecast. Weather courtesy of forecast.io.

Current aviation weather report (METAR) for Barnstable Municipal Boardman Polando Field

Retrieved 2019/12/06 14:56 UTC (20 minutes ago):

KHYA 061456Z 25008KT 10SM FEW080 02/M07 A3011 RMK AO2 SLP197 T00221067 50014

Aviation forecast (TAF) for Barnstable Municipal Boardman Polando Field

Retrieved 2019/12/06 12:24 UTC (3 hours ago):

TAF KHYA 061122Z 0612/0712 28010KT P6SM BKN250 FM061900 23012KT P6SM VCSH OVC050 FM062100 22010G20KT 6SM -RA OVC040 FM070100 23013G24KT P6SM OVC045 FM070800 33015G24KT P6SM SCT150